map of TST home
TST - Airport
Location
City:  Trang, Trang, Thailand
ICAO:VTST
IATA:TST

Details
Type:Airport (Aerodrome, Airfield)
Use:Public/Civil
Latitude:730'31"N (7.508744)
Longitude:9937'00"E (99.616578)
Datum:WGS 1984
Elevation:67 ft (20 m)
Variation:0.31W (WMM2015 magnetic declination)
0.02 annual change
Runways:1
Longest:6890 × 148 ft (2100 × 45 m), paved

Time
Time Zone:UTC+7
Local Time:

Weather
METAR:VTST 161300Z 03005KT 7000 -RA SCT020 SCT023 24/23 Q1012 NOSIG
TAF:VTST 161100Z 1612/1712 04006KT 8000 SCT020 BKN100
TEMPO 1612/1618 VRB10G20KT 5000 TSRA FEW018CB SCT020 BKN100
BECMG 1622/1624 3000 BR
BECMG 1700/1702 9999 NSW
TEMPO 1704/1710 VRB10G20KT 5000 TSRA FEW018CB SCT020 BKN100

Related Locations
Nearby:
Farthest:SPYO: 12393 mi / 19945 km
Pacasmayo [Pacasmayo Airport], LAL, PE

Find:

   beyond  
but within

Other Information
Maps:
NOTAMs:
Links:
Sources:

  
  • flag of Thailand
  

Sectional Chart

Flight Planning
at skyvector.com

Satellite Image

Google Maps Satellite view

 

Copyright © 2004-2018 Karl L. Swartz. All rights reserved.
The Great Circle Mapper name and logo are trademarks of the Great Circle Mapper.
All other trademarks mentioned herein belong to their respective owners.
Please see credits for attibutions and further copyright information.

  Follow gcmap on Facebook Follow gcmap on Twitter Follow gcmap on Google+ GCmap on LinkedIn

hCard Microformat

Geo Microformat